Time;durP1;ratioP1;P1;durP2;ratioP2;P2;SDS_P1;SDS_P2;PMS_P1;PMS_P2;Temp;Humidity;BMP_temperature;BMP_pressure;BME280_temperature;BME280_humidity;BME280_pressure;Samples;Min_cycle;Max_cycle;Signal;HPM_P1;HPM_P2
2023/09/10 00:00:50;;;;;;;62.47;39.70;;;27.50;99.90;;;;;;5035062;28;20525;-63
2023/09/10 00:03:17;;;;;;;68.78;41.70;;;27.50;99.90;;;;;;5034746;28;20033;-62
2023/09/10 00:05:44;;;;;;;68.63;43.97;;;27.60;99.90;;;;;;5053472;28;20029;-64
2023/09/10 00:08:10;;;;;;;72.43;42.67;;;27.60;99.90;;;;;;5054596;28;20044;-63
2023/09/10 00:10:37;;;;;;;67.53;42.10;;;27.60;99.90;;;;;;5053359;28;20024;-64
2023/09/10 00:13:04;;;;;;;68.30;41.58;;;27.50;99.90;;;;;;5054795;28;20029;-63
2023/09/10 00:15:30;;;;;;;65.50;41.40;;;27.50;99.90;;;;;;5054299;28;20033;-63
2023/09/10 00:17:57;;;;;;;73.07;40.05;;;27.60;99.90;;;;;;5054397;28;20387;-64
2023/09/10 00:20:23;;;;;;;78.22;38.92;;;27.60;99.90;;;;;;5054500;28;20029;-64
2023/09/10 00:22:50;;;;;;;54.28;32.80;;;27.60;99.90;;;;;;5054204;28;20032;-65
2023/09/10 00:25:16;;;;;;;51.65;31.73;;;27.60;99.90;;;;;;5054306;28;20032;-64
2023/09/10 00:27:43;;;;;;;114.75;78.28;;;27.70;99.90;;;;;;5054272;28;20029;-64
2023/09/10 00:30:10;;;;;;;93.05;55.63;;;27.70;99.90;;;;;;5053903;28;20415;-64
2023/09/10 00:32:37;;;;;;;127.10;83.07;;;27.70;99.90;;;;;;5054128;28;20045;-63
2023/09/10 00:35:04;;;;;;;66.75;43.80;;;27.70;99.90;;;;;;5054181;28;20025;-62
2023/09/10 00:37:31;;;;;;;76.60;50.53;;;27.80;99.90;;;;;;5053841;28;20032;-61
2023/09/10 00:39:57;;;;;;;52.08;33.17;;;27.80;99.90;;;;;;5037527;28;20047;-62
2023/09/10 00:42:24;;;;;;;55.00;34.83;;;27.90;99.90;;;;;;5033922;28;20512;-63
2023/09/10 00:44:50;;;;;;;49.83;32.20;;;28.00;99.90;;;;;;5033772;28;20038;-63
2023/09/10 00:47:17;;;;;;;46.70;31.48;;;28.10;99.90;;;;;;5033946;28;20021;-63
2023/09/10 00:49:44;;;;;;;57.72;37.95;;;28.10;99.90;;;;;;5033636;28;20025;-61
2023/09/10 00:52:12;;;;;;;57.28;32.10;;;28.10;99.90;;;;;;5033391;28;20049;-62
2023/09/10 00:54:40;;;;;;;66.32;32.78;;;28.10;99.90;;;;;;5033770;28;20030;-63
2023/09/10 00:57:07;;;;;;;50.35;31.52;;;28.20;99.90;;;;;;5033808;28;20487;-63
2023/09/10 00:59:35;;;;;;;47.13;31.25;;;28.20;99.90;;;;;;5033890;28;20022;-62
2023/09/10 01:02:02;;;;;;;56.70;32.33;;;28.40;99.90;;;;;;5053137;28;20111;-62
2023/09/10 01:04:29;;;;;;;93.93;69.53;;;28.40;99.90;;;;;;5053583;28;20029;-63
2023/09/10 01:06:56;;;;;;;78.90;50.33;;;28.50;99.90;;;;;;5053769;28;20032;-63
2023/09/10 01:09:22;;;;;;;51.35;34.08;;;28.50;99.90;;;;;;5053606;28;20423;-62
2023/09/10 01:12:11;;;;;;;48.30;33.90;;;28.60;99.90;;;;;;5053486;28;20025;-62
2023/09/10 01:14:59;;;;;;;59.10;37.33;;;28.60;99.90;;;;;;5053491;28;20035;-63
2023/09/10 01:17:38;;;;;;;42.55;28.80;;;28.60;99.90;;;;;;5053374;28;20047;-63
2023/09/10 01:20:23;;;;;;;45.65;32.42;;;28.60;99.90;;;;;;5053385;28;20059;-62
2023/09/10 01:23:19;;;;;;;48.63;30.83;;;28.80;99.90;;;;;;5052891;28;20029;-63
2023/09/10 01:25:46;;;;;;;44.30;28.85;;;28.80;99.90;;;;;;5053297;28;20430;-61
2023/09/10 01:28:12;;;;;;;49.70;30.55;;;28.90;99.90;;;;;;5053203;28;20056;-62
2023/09/10 01:30:39;;;;;;;43.78;28.73;;;28.90;99.90;;;;;;5053351;28;20096;-62
2023/09/10 01:33:06;;;;;;;43.97;29.77;;;29.00;99.90;;;;;;5053197;28;20484;-61
2023/09/10 01:36:20;;;;;;;42.25;25.83;;;29.10;99.90;;;;;;5053254;28;20026;-61
2023/09/10 01:38:55;;;;;;;44.10;24.98;;;29.20;99.90;;;;;;5057669;28;20033;-64
2023/09/10 01:41:22;;;;;;;37.72;23.90;;;29.20;99.90;;;;;;5072854;28;20021;-62
2023/09/10 01:43:53;;;;;;;40.10;26.13;;;29.20;99.90;;;;;;5072656;28;20052;-64
2023/09/10 01:46:22;;;;;;;36.17;23.92;;;29.30;99.90;;;;;;5072981;28;20013;-63
2023/09/10 01:48:48;;;;;;;34.30;24.98;;;29.30;99.90;;;;;;5061780;28;20029;-64
2023/09/10 01:51:17;;;;;;;40.67;27.45;;;29.40;99.90;;;;;;5041854;28;20029;-63
2023/09/10 01:53:44;;;;;;;40.63;26.27;;;29.40;99.90;;;;;;5040533;28;20060;-63
2023/09/10 01:56:10;;;;;;;44.55;27.83;;;29.40;99.90;;;;;;5051111;28;20029;-62
2023/09/10 01:58:38;;;;;;;44.58;28.10;;;29.40;99.90;;;;;;5052837;28;20036;-63
2023/09/10 02:01:06;;;;;;;42.20;26.90;;;29.50;99.90;;;;;;5064131;28;20386;-63
2023/09/10 02:03:33;;;;;;;39.47;28.35;;;29.50;99.90;;;;;;5067469;28;20062;-63
2023/09/10 02:06:03;;;;;;;40.08;25.63;;;29.60;99.90;;;;;;5072645;28;20017;-65
2023/09/10 02:08:30;;;;;;;41.72;27.35;;;29.70;99.90;;;;;;5071722;28;20024;-62
2023/09/10 02:10:57;;;;;;;38.17;26.95;;;29.80;99.90;;;;;;5072623;28;20352;-63
2023/09/10 02:13:23;;;;;;;38.47;25.58;;;29.80;99.90;;;;;;5071868;28;20029;-63
2023/09/10 02:15:50;;;;;;;40.97;27.13;;;29.90;99.90;;;;;;5071785;28;20025;-62
2023/09/10 02:18:17;;;;;;;38.83;26.33;;;30.00;99.90;;;;;;5069753;28;20021;-62
2023/09/10 02:20:43;;;;;;;42.92;26.75;;;30.10;99.90;;;;;;5072064;28;20031;-62
2023/09/10 02:23:10;;;;;;;39.95;27.27;;;30.20;99.90;;;;;;5072133;28;20042;-62
2023/09/10 02:25:36;;;;;;;40.45;26.40;;;30.30;99.90;;;;;;5072107;28;20101;-62
2023/09/10 02:28:03;;;;;;;39.45;26.42;;;30.30;99.90;;;;;;5072197;28;20025;-61
2023/09/10 02:30:30;;;;;;;36.42;26.33;;;30.40;99.90;;;;;;5071764;28;20020;-65
2023/09/10 02:32:56;;;;;;;38.67;26.95;;;30.50;99.90;;;;;;5071872;28;20013;-62
2023/09/10 02:35:24;;;;;;;39.72;27.75;;;30.50;99.90;;;;;;5075475;28;20074;-63
2023/09/10 02:37:50;;;;;;;94.47;67.13;;;30.60;99.90;;;;;;5075160;28;20024;-63
2023/09/10 02:40:17;;;;;;;66.88;45.88;;;30.70;99.90;;;;;;5075537;28;20016;-63
2023/09/10 02:42:43;;;;;;;61.20;42.03;;;30.80;99.90;;;;;;5075333;28;20020;-61
2023/09/10 02:45:11;;;;;;;75.28;47.92;;;30.90;99.90;;;;;;5075418;28;20024;-62
2023/09/10 02:47:37;;;;;;;89.70;65.10;;;30.90;99.90;;;;;;5075428;28;20016;-62
2023/09/10 02:50:05;;;;;;;40.10;29.33;;;30.90;99.90;;;;;;5072260;28;20025;-62
2023/09/10 02:52:32;;;;;;;83.85;32.83;;;31.00;99.90;;;;;;5075097;28;20049;-61
2023/09/10 02:54:59;;;;;;;47.00;28.45;;;31.10;99.90;;;;;;5075056;28;20048;-61
2023/09/10 02:57:25;;;;;;;71.10;51.95;;;31.10;99.90;;;;;;5075315;28;20021;-63
2023/09/10 02:59:52;;;;;;;62.38;45.50;;;31.10;99.90;;;;;;5075121;28;20017;-61
2023/09/10 03:02:18;;;;;;;58.60;41.03;;;31.10;99.90;;;;;;5071278;28;20033;-61
2023/09/10 03:04:45;;;;;;;54.10;36.65;;;31.20;99.90;;;;;;5056445;28;20029;-61
2023/09/10 03:07:11;;;;;;;64.93;44.90;;;31.20;99.90;;;;;;5070992;28;20024;-62
2023/09/10 03:09:38;;;;;;;59.60;39.92;;;31.20;99.90;;;;;;5070829;28;20378;-62
2023/09/10 03:12:28;;;;;;;50.50;34.85;;;31.00;99.90;;;;;;5075184;28;20055;-62
2023/09/10 03:14:55;;;;;;;97.03;64.57;;;31.00;99.90;;;;;;5073817;28;20067;-62
2023/09/10 03:17:22;;;;;;;110.10;77.55;;;30.90;99.90;;;;;;5075219;28;20021;-62
2023/09/10 03:19:48;;;;;;;132.43;90.82;;;30.90;99.90;;;;;;5075266;28;20382;-63
2023/09/10 03:22:15;;;;;;;83.20;59.38;;;30.90;99.90;;;;;;5075581;28;20074;-63
2023/09/10 03:24:41;;;;;;;82.03;55.60;;;30.90;99.90;;;;;;5075976;28;20020;-62
2023/09/10 03:27:08;;;;;;;63.35;42.92;;;30.90;99.90;;;;;;5075962;28;20309;-64
2023/09/10 03:29:35;;;;;;;59.53;39.50;;;30.90;99.90;;;;;;5076286;28;20029;-63
2023/09/10 03:32:06;;;;;;;88.03;58.92;;;31.00;99.90;;;;;;5075509;28;20032;-64
2023/09/10 03:34:33;;;;;;;115.18;77.22;;;31.00;99.90;;;;;;5075839;28;20017;-64
2023/09/10 03:36:59;;;;;;;124.57;83.10;;;31.00;99.90;;;;;;5075179;28;20537;-64
2023/09/10 03:39:27;;;;;;;71.28;41.78;;;31.00;99.90;;;;;;5075674;28;20055;-63
2023/09/10 03:41:53;;;;;;;60.15;37.55;;;31.10;99.90;;;;;;5076120;28;20040;-64
2023/09/10 03:44:20;;;;;;;51.25;34.65;;;31.20;99.90;;;;;;5074967;28;20025;-65
2023/09/10 03:46:47;;;;;;;53.05;33.65;;;31.20;99.90;;;;;;5075949;28;20016;-62
2023/09/10 03:49:14;;;;;;;43.15;33.40;;;31.30;99.90;;;;;;5074996;28;20341;-64
2023/09/10 03:51:40;;;;;;;47.72;32.40;;;31.30;99.90;;;;;;5073988;28;20047;-64
2023/09/10 03:54:11;;;;;;;53.47;32.05;;;31.30;99.90;;;;;;5074644;28;20012;-64
2023/09/10 03:56:43;;;;;;;40.10;30.45;;;31.50;99.90;;;;;;5074212;28;20378;-65
2023/09/10 03:59:10;;;;;;;42.35;31.40;;;31.50;99.90;;;;;;5070649;28;20021;-64
2023/09/10 04:01:37;;;;;;;48.22;32.72;;;31.60;99.90;;;;;;5074077;28;20078;-65
2023/09/10 04:04:07;;;;;;;44.45;32.15;;;31.60;99.90;;;;;;5074364;28;20036;-65
2023/09/10 04:06:34;;;;;;;44.08;31.45;;;31.60;99.90;;;;;;5074065;28;20020;-63
2023/09/10 04:09:00;;;;;;;40.80;30.65;;;31.70;99.90;;;;;;5074190;28;20028;-65
2023/09/10 04:11:27;;;;;;;50.42;32.25;;;31.70;99.90;;;;;;5074331;28;20059;-63
2023/09/10 04:13:53;;;;;;;44.58;31.38;;;31.80;99.90;;;;;;5074155;28;20096;-66
2023/09/10 04:16:20;;;;;;;47.88;31.75;;;31.80;99.90;;;;;;5074063;28;20020;-62
2023/09/10 04:18:46;;;;;;;42.63;31.17;;;31.80;99.90;;;;;;5074179;28;20479;-61
2023/09/10 04:21:13;;;;;;;51.08;32.75;;;31.80;99.90;;;;;;5074059;28;20032;-65
2023/09/10 04:23:39;;;;;;;44.63;32.58;;;31.90;99.90;;;;;;5074103;28;20043;-64
2023/09/10 04:26:06;;;;;;;61.50;37.60;;;31.80;99.90;;;;;;5073870;28;20028;-61
2023/09/10 04:28:33;;;;;;;103.88;61.58;;;31.90;99.90;;;;;;5074478;28;20099;-64
2023/09/10 04:30:59;;;;;;;70.35;40.00;;;31.90;99.90;;;;;;5073684;28;20425;-61
2023/09/10 04:33:26;;;;;;;51.22;33.72;;;32.00;99.90;;;;;;5068563;28;20017;-62
2023/09/10 04:36:01;;;;;;;51.85;33.58;;;32.00;99.90;;;;;;5073733;28;20009;-62
2023/09/10 04:38:27;;;;;;;49.47;35.80;;;32.10;99.90;;;;;;5068726;28;20528;-62
2023/09/10 04:40:55;;;;;;;43.28;31.58;;;32.20;99.90;;;;;;5073731;28;20074;-62
2023/09/10 04:43:22;;;;;;;46.60;32.05;;;32.20;99.90;;;;;;5073549;28;20029;-63
2023/09/10 04:45:48;;;;;;;42.22;31.90;;;32.30;99.90;;;;;;5073440;28;20039;-62
2023/09/10 04:48:17;;;;;;;53.15;36.55;;;32.50;99.90;;;;;;5073453;28;20017;-65
2023/09/10 04:50:44;;;;;;;51.17;38.35;;;32.50;99.90;;;;;;5073332;28;20107;-63
2023/09/10 04:53:13;;;;;;;53.60;39.28;;;32.60;99.90;;;;;;5073174;28;20037;-63
2023/09/10 04:55:40;;;;;;;51.08;34.17;;;32.70;99.90;;;;;;5073253;28;20487;-63
2023/09/10 04:58:06;;;;;;;46.75;34.35;;;32.80;99.90;;;;;;5068065;28;20020;-62
2023/09/10 05:00:33;;;;;;;45.47;34.17;;;32.90;99.90;;;;;;5073308;28;20524;-63
2023/09/10 05:02:59;;;;;;;45.85;33.92;;;32.90;99.90;;;;;;5073051;28;20025;-66
2023/09/10 05:05:26;;;;;;;46.60;34.20;;;32.90;99.90;;;;;;5062598;28;20029;-63
2023/09/10 05:07:52;;;;;;;42.97;34.25;;;33.00;99.90;;;;;;5072930;28;20023;-63
2023/09/10 05:10:19;;;;;;;43.40;33.65;;;33.00;99.90;;;;;;5073056;28;20021;-63
2023/09/10 05:12:46;;;;;;;49.20;35.42;;;32.90;99.90;;;;;;5073326;28;20064;-63
2023/09/10 05:15:12;;;;;;;49.13;35.63;;;32.90;99.90;;;;;;5073357;28;20020;-64
2023/09/10 05:17:39;;;;;;;54.65;41.15;;;33.10;99.90;;;;;;5072940;28;20024;-63
2023/09/10 05:20:07;;;;;;;48.13;36.03;;;33.20;99.90;;;;;;5071615;28;20050;-64
2023/09/10 05:22:33;;;;;;;43.45;34.65;;;33.10;99.90;;;;;;5069469;28;20020;-64
2023/09/10 05:25:00;;;;;;;46.80;34.28;;;33.20;99.90;;;;;;5064918;28;20034;-64
2023/09/10 05:27:26;;;;;;;49.08;34.42;;;33.20;99.90;;;;;;5070397;28;20384;-65
2023/09/10 05:29:53;;;;;;;45.47;34.88;;;33.30;99.90;;;;;;5071432;28;20017;-64
2023/09/10 05:32:20;;;;;;;44.50;35.25;;;33.40;99.90;;;;;;5069778;28;20083;-64
2023/09/10 05:34:46;;;;;;;47.72;36.15;;;33.30;99.90;;;;;;5065786;28;20442;-64
2023/09/10 05:37:13;;;;;;;51.50;36.83;;;33.30;99.90;;;;;;5052843;28;20049;-64
2023/09/10 05:39:39;;;;;;;51.63;37.53;;;33.20;99.90;;;;;;5040914;28;20541;-64
2023/09/10 05:42:06;;;;;;;45.63;33.90;;;33.20;99.90;;;;;;5043436;28;20029;-64
2023/09/10 05:44:33;;;;;;;47.45;34.55;;;33.40;99.90;;;;;;5036416;28;20379;-63
2023/09/10 05:46:59;;;;;;;42.10;33.80;;;33.50;99.90;;;;;;5038267;28;20025;-64
2023/09/10 05:49:26;;;;;;;44.40;34.08;;;33.60;99.90;;;;;;5038788;28;20018;-62
2023/09/10 05:51:52;;;;;;;49.95;35.22;;;33.70;99.90;;;;;;5038082;28;20084;-64
2023/09/10 05:54:19;;;;;;;46.92;34.30;;;33.80;99.90;;;;;;5042371;28;20100;-63
2023/09/10 05:56:45;;;;;;;46.38;34.60;;;33.80;99.90;;;;;;5041247;28;20357;-64
2023/09/10 05:59:12;;;;;;;43.05;34.78;;;33.90;99.90;;;;;;5043678;28;20018;-64
2023/09/10 06:01:39;;;;;;;75.97;61.00;;;34.00;99.90;;;;;;5043743;28;20044;-65
2023/09/10 06:04:05;;;;;;;104.65;79.82;;;34.10;99.90;;;;;;5046395;28;20074;-64
2023/09/10 06:06:32;;;;;;;48.28;37.05;;;34.00;99.90;;;;;;5048699;28;20017;-63
2023/09/10 06:08:58;;;;;;;46.15;36.08;;;34.20;99.20;;;;;;5047647;28;20476;-65
2023/09/10 06:11:25;;;;;;;50.53;35.05;;;34.20;98.70;;;;;;5045881;28;20112;-64
2023/09/10 06:13:51;;;;;;;106.22;80.10;;;34.40;98.30;;;;;;5047163;28;20349;-65
2023/09/10 06:16:18;;;;;;;44.88;35.70;;;34.50;98.50;;;;;;5048106;28;20095;-64
2023/09/10 06:18:45;;;;;;;62.08;46.28;;;34.50;97.40;;;;;;5045883;28;20028;-63
2023/09/10 06:21:11;;;;;;;116.68;89.03;;;34.50;98.00;;;;;;5047124;28;20070;-65
2023/09/10 06:23:38;;;;;;;62.05;49.42;;;34.50;98.30;;;;;;5047693;28;20507;-63
2023/09/10 06:26:04;;;;;;;48.60;35.13;;;34.50;97.90;;;;;;5046036;28;20021;-64
2023/09/10 06:28:31;;;;;;;43.67;35.45;;;34.50;97.60;;;;;;5047084;28;20047;-65
2023/09/10 06:30:57;;;;;;;49.28;36.28;;;34.60;97.10;;;;;;5046281;28;20432;-64
2023/09/10 06:33:24;;;;;;;108.80;80.38;;;34.60;96.90;;;;;;5047099;28;20017;-63
2023/09/10 06:35:51;;;;;;;54.95;42.70;;;34.70;98.10;;;;;;5048666;28;20089;-67
2023/09/10 06:38:17;;;;;;;47.03;39.95;;;34.70;98.10;;;;;;5048659;28;20044;-66
2023/09/10 06:40:44;;;;;;;48.33;38.00;;;34.70;98.10;;;;;;5044844;28;20060;-64
2023/09/10 06:43:11;;;;;;;49.20;39.20;;;34.70;97.80;;;;;;5048268;28;20029;-65
2023/09/10 06:45:38;;;;;;;49.40;38.58;;;34.70;98.10;;;;;;5048119;28;20444;-66
2023/09/10 06:48:05;;;;;;;54.35;40.58;;;34.70;97.70;;;;;;5051910;28;20052;-67
2023/09/10 06:50:35;;;;;;;55.03;43.75;;;34.80;97.00;;;;;;5056435;28;20032;-66
2023/09/10 06:53:02;;;;;;;61.60;47.03;;;34.90;97.30;;;;;;5056483;28;20419;-65
2023/09/10 06:55:28;;;;;;;52.45;38.90;;;34.90;97.10;;;;;;5056483;28;20379;-65
2023/09/10 06:57:55;;;;;;;49.75;40.30;;;34.90;96.00;;;;;;5055584;28;20033;-65
2023/09/10 07:00:22;;;;;;;65.43;53.63;;;35.00;95.20;;;;;;5055737;28;20032;-65
2023/09/10 07:02:48;;;;;;;57.08;42.30;;;35.10;95.70;;;;;;5069764;28;20021;-68
2023/09/10 07:05:21;;;;;;;59.10;39.13;;;35.10;95.60;;;;;;5076090;28;20044;-66
2023/09/10 07:07:53;;;;;;;47.67;38.85;;;35.00;95.70;;;;;;5069201;28;20017;-66
2023/09/10 07:10:20;;;;;;;54.92;39.17;;;35.10;95.80;;;;;;5074965;28;20021;-66
2023/09/10 07:12:47;;;;;;;44.80;38.08;;;35.10;96.00;;;;;;5074900;28;20538;-68
2023/09/10 07:15:13;;;;;;;47.55;37.47;;;35.30;94.80;;;;;;5074956;28;20012;-63
2023/09/10 07:17:40;;;;;;;48.75;38.22;;;35.30;95.70;;;;;;5055889;28;20025;-66
2023/09/10 07:20:07;;;;;;;52.47;39.97;;;35.20;95.60;;;;;;5045912;28;20014;-66
2023/09/10 07:22:34;;;;;;;79.95;57.28;;;35.10;95.70;;;;;;5051420;28;20272;-65
2023/09/10 07:25:00;;;;;;;63.05;47.42;;;35.10;95.50;;;;;;5048299;28;20070;-67
2023/09/10 07:27:27;;;;;;;63.92;51.40;;;35.10;95.70;;;;;;5044449;28;20140;-65
2023/09/10 07:29:53;;;;;;;76.72;57.95;;;35.10;95.70;;;;;;5044061;28;20025;-65
2023/09/10 07:32:20;;;;;;;57.33;43.85;;;35.10;96.00;;;;;;5046969;28;20590;-66
2023/09/10 07:34:47;;;;;;;43.33;36.45;;;35.20;95.70;;;;;;5048182;28;20021;-68
2023/09/10 07:37:13;;;;;;;51.20;38.72;;;35.30;95.00;;;;;;5056636;28;20551;-64
2023/09/10 07:39:40;;;;;;;59.47;41.70;;;35.40;95.70;;;;;;5046767;28;20317;-63
2023/09/10 07:42:06;;;;;;;53.72;42.88;;;35.30;95.40;;;;;;5048955;28;20039;-61
2023/09/10 07:44:33;;;;;;;73.53;49.30;;;35.40;95.50;;;;;;5045181;28;20051;-63
2023/09/10 07:46:59;;;;;;;79.72;54.92;;;35.40;94.70;;;;;;5034282;28;20111;-61
2023/09/10 07:49:26;;;;;;;71.07;54.47;;;35.40;95.20;;;;;;5034105;28;20017;-67
2023/09/10 07:51:52;;;;;;;61.88;49.55;;;35.50;95.40;;;;;;5034243;28;20044;-66
2023/09/10 07:54:19;;;;;;;58.50;45.17;;;35.50;94.90;;;;;;5034162;28;20029;-68
2023/09/10 07:56:46;;;;;;;61.55;47.65;;;35.50;95.10;;;;;;5034852;28;20028;-72
2023/09/10 07:59:13;;;;;;;57.20;43.55;;;35.50;94.60;;;;;;5032524;28;20021;-69
2023/09/10 08:01:39;;;;;;;57.85;45.58;;;35.40;94.60;;;;;;5034326;28;20025;-66
2023/09/10 08:04:06;;;;;;;66.70;50.13;;;35.40;94.50;;;;;;5034917;28;20025;-67
2023/09/10 08:06:33;;;;;;;71.28;50.85;;;35.40;94.40;;;;;;5034869;28;20025;-69
2023/09/10 08:08:59;;;;;;;70.15;50.47;;;35.30;94.10;;;;;;5034253;28;20057;-70
2023/09/10 08:11:25;;;;;;;73.80;52.58;;;35.30;94.40;;;;;;5034191;28;20453;-70
2023/09/10 08:13:52;;;;;;;67.82;50.45;;;35.20;94.40;;;;;;5033220;28;20032;-70
2023/09/10 08:16:19;;;;;;;62.17;49.08;;;35.10;94.30;;;;;;5034084;28;20104;-70
2023/09/10 08:18:45;;;;;;;71.10;50.80;;;35.00;94.60;;;;;;5034104;28;20075;-69
2023/09/10 08:21:12;;;;;;;75.20;55.80;;;35.00;94.40;;;;;;5034510;28;20030;-70
2023/09/10 08:23:39;;;;;;;72.82;54.40;;;35.10;94.50;;;;;;5033747;28;20030;-71
2023/09/10 08:26:05;;;;;;;75.50;58.30;;;35.10;94.30;;;;;;5033871;28;20074;-70
2023/09/10 08:28:32;;;;;;;90.80;63.33;;;35.10;94.60;;;;;;5034110;28;20151;-67
2023/09/10 08:30:58;;;;;;;91.95;64.75;;;35.20;94.80;;;;;;5033001;28;20064;-67
2023/09/10 08:33:25;;;;;;;87.82;62.88;;;35.20;94.60;;;;;;5034133;28;20021;-70
2023/09/10 08:35:54;;;;;;;83.13;57.28;;;35.20;94.30;;;;;;5034085;28;20156;-70
2023/09/10 08:38:22;;;;;;;69.95;52.38;;;35.10;93.80;;;;;;5033861;28;20028;-70
2023/09/10 08:41:06;;;;;;;70.93;51.53;;;35.00;93.90;;;;;;5034147;28;20025;-69
2023/09/10 08:43:49;;;;;;;73.30;53.85;;;35.10;94.30;;;;;;5033926;28;20026;-70
2023/09/10 08:46:15;;;;;;;68.50;51.83;;;35.20;93.90;;;;;;5033840;28;20384;-70
2023/09/10 08:48:42;;;;;;;68.10;47.65;;;35.20;93.60;;;;;;5033870;28;20025;-70
2023/09/10 08:51:13;;;;;;;58.33;45.03;;;35.20;93.20;;;;;;5033550;28;20025;-70
2023/09/10 08:53:40;;;;;;;66.07;48.03;;;35.10;93.00;;;;;;5033580;28;20122;-69
2023/09/10 08:56:08;;;;;;;65.80;50.10;;;35.10;93.50;;;;;;5033645;28;20028;-70
2023/09/10 08:58:38;;;;;;;79.03;57.28;;;35.00;93.70;;;;;;5033400;28;20030;-70
2023/09/10 09:01:06;;;;;;;86.22;60.85;;;35.10;93.90;;;;;;5033576;28;20027;-70
2023/09/10 09:03:33;;;;;;;86.13;60.90;;;35.10;93.90;;;;;;5032271;28;20424;-71
2023/09/10 09:06:04;;;;;;;85.15;58.22;;;35.10;93.80;;;;;;5033387;28;20029;-71
2023/09/10 09:08:33;;;;;;;89.72;61.17;;;35.10;93.80;;;;;;5033577;28;20452;-70
2023/09/10 09:11:08;;;;;;;77.80;57.42;;;35.00;93.80;;;;;;5033191;28;20025;-70
2023/09/10 09:13:38;;;;;;;78.18;55.58;;;35.00;93.80;;;;;;5033411;28;20033;-71
2023/09/10 09:16:05;;;;;;;121.85;57.00;;;35.00;93.90;;;;;;5033471;28;20104;-70
2023/09/10 09:18:35;;;;;;;73.60;51.97;;;34.90;93.00;;;;;;5033234;28;20119;-70
2023/09/10 09:21:20;;;;;;;64.38;47.45;;;34.90;92.80;;;;;;5033215;28;20026;-70
2023/09/10 09:24:01;;;;;;;79.32;55.38;;;34.90;93.10;;;;;;5033155;28;20368;-70
2023/09/10 09:26:29;;;;;;;90.43;61.87;;;35.00;93.00;;;;;;5033250;28;20041;-70
2023/09/10 09:28:57;;;;;;;103.82;67.53;;;35.00;93.20;;;;;;5033045;28;20024;-69
2023/09/10 09:31:24;;;;;;;101.93;70.03;;;35.00;93.20;;;;;;5032967;28;20029;-70
2023/09/10 09:33:52;;;;;;;99.28;68.63;;;35.00;93.40;;;;;;5033196;28;20487;-70
2023/09/10 09:36:19;;;;;;;93.85;67.47;;;34.90;93.20;;;;;;5031639;28;20431;-71
2023/09/10 09:38:50;;;;;;;92.03;62.47;;;35.00;93.30;;;;;;5033101;28;20025;-69
2023/09/10 09:41:17;;;;;;;90.35;62.75;;;35.00;93.20;;;;;;5033006;28;20021;-69
2023/09/10 09:43:44;;;;;;;90.15;65.80;;;34.90;93.20;;;;;;5032642;28;20021;-70
2023/09/10 09:46:11;;;;;;;95.80;66.95;;;35.00;93.60;;;;;;5032987;28;20113;-70
2023/09/10 09:48:38;;;;;;;90.53;66.20;;;34.90;93.20;;;;;;5033063;28;20123;-71
2023/09/10 09:51:06;;;;;;;109.85;75.40;;;34.80;93.50;;;;;;5031355;28;20388;-70
2023/09/10 09:53:33;;;;;;;116.97;81.40;;;34.80;93.50;;;;;;5032824;28;20046;-70
2023/09/10 09:56:04;;;;;;;97.00;72.00;;;34.80;93.50;;;;;;5032940;28;20427;-70
2023/09/10 09:58:32;;;;;;;91.88;62.35;;;34.80;93.20;;;;;;5032735;28;20531;-70
2023/09/10 10:01:00;;;;;;;91.28;61.78;;;34.70;92.90;;;;;;5032913;28;20036;-69
2023/09/10 10:03:32;;;;;;;77.78;54.55;;;34.60;92.80;;;;;;5032941;28;20021;-69
2023/09/10 10:05:59;;;;;;;635.65;476.05;;;34.50;92.80;;;;;;5032735;28;20056;-70
2023/09/10 10:08:28;;;;;;;629.67;476.00;;;34.50;93.00;;;;;;5032944;28;20522;-70
2023/09/10 10:10:55;;;;;;;582.67;429.33;;;34.50;93.50;;;;;;5032680;28;20053;-69
2023/09/10 10:13:24;;;;;;;500.23;377.27;;;34.40;93.50;;;;;;5032667;28;20029;-70
2023/09/10 10:15:55;;;;;;;250.50;184.10;;;34.40;93.60;;;;;;5032871;28;20021;-70
2023/09/10 10:18:26;;;;;;;222.63;159.10;;;34.40;93.40;;;;;;5032588;28;20026;-70
2023/09/10 10:20:52;;;;;;;314.58;232.27;;;34.40;93.60;;;;;;5032741;28;20495;-70
2023/09/10 10:23:20;;;;;;;249.13;179.93;;;34.30;93.70;;;;;;5032736;28;20025;-70
2023/09/10 10:25:48;;;;;;;115.75;83.53;;;34.30;93.80;;;;;;5032521;28;20104;-70
2023/09/10 10:28:15;;;;;;;149.02;93.00;;;34.20;93.80;;;;;;5032468;28;20079;-71
2023/09/10 10:31:10;;;;;;;121.93;83.93;;;34.20;94.20;;;;;;5032588;28;20112;-70
2023/09/10 10:33:40;;;;;;;137.05;94.38;;;34.10;94.20;;;;;;5028023;28;20079;-70
2023/09/10 10:36:25;;;;;;;103.20;69.18;;;34.10;94.20;;;;;;5032588;28;20100;-70
2023/09/10 10:38:58;;;;;;;89.55;59.63;;;34.00;94.20;;;;;;5032666;28;20025;-69
2023/09/10 10:41:27;;;;;;;106.65;79.00;;;34.00;96.10;;;;;;5032451;28;20076;-69
2023/09/10 10:44:08;;;;;;;83.60;53.50;;;33.70;96.80;;;;;;5032478;28;20032;-70
2023/09/10 10:46:38;;;;;;;70.07;50.57;;;33.60;97.20;;;;;;5032550;28;20017;-68
2023/09/10 10:49:07;;;;;;;72.53;50.47;;;33.40;97.60;;;;;;5032258;28;20167;-67
2023/09/10 10:51:40;;;;;;;83.35;50.70;;;33.10;98.10;;;;;;5032261;28;20467;-68
2023/09/10 10:54:07;;;;;;;73.90;50.80;;;33.00;98.60;;;;;;5032557;28;20022;-65
2023/09/10 10:56:35;;;;;;;78.30;52.13;;;32.80;99.10;;;;;;5035951;28;20021;-70
2023/09/10 10:59:02;;;;;;;72.15;50.88;;;32.80;99.10;;;;;;5035840;28;20448;-68
2023/09/10 11:01:28;;;;;;;75.93;49.83;;;32.70;99.20;;;;;;5035863;28;20021;-68
2023/09/10 11:03:55;;;;;;;64.22;45.47;;;32.70;99.50;;;;;;5035874;28;20025;-68
2023/09/10 11:06:21;;;;;;;73.10;47.00;;;32.60;99.80;;;;;;5035737;28;20437;-68
2023/09/10 11:08:48;;;;;;;65.10;45.33;;;32.60;99.90;;;;;;5035853;28;20387;-67
2023/09/10 11:11:33;;;;;;;72.20;46.13;;;32.60;99.90;;;;;;5035507;28;20025;-68
2023/09/10 11:14:06;;;;;;;67.00;43.10;;;32.50;99.90;;;;;;5035699;28;20472;-69
2023/09/10 11:16:33;;;;;;;74.72;46.20;;;32.40;99.90;;;;;;5035580;28;20022;-69
2023/09/10 11:19:01;;;;;;;72.63;46.58;;;32.40;99.90;;;;;;5035579;28;20088;-70
2023/09/10 11:21:55;;;;;;;81.55;49.30;;;32.40;99.90;;;;;;5035444;28;20104;-68
2023/09/10 11:24:21;;;;;;;63.38;45.92;;;32.40;99.90;;;;;;5035456;28;20030;-67
2023/09/10 11:26:48;;;;;;;76.70;49.45;;;32.40;99.90;;;;;;5035288;28;20031;-67
2023/09/10 11:29:19;;;;;;;67.95;45.42;;;32.20;99.90;;;;;;5035330;28;20092;-67
2023/09/10 11:31:52;;;;;;;77.97;50.38;;;32.20;99.90;;;;;;5035237;28;20036;-67
2023/09/10 11:34:23;;;;;;;74.38;48.40;;;32.20;99.90;;;;;;5035128;28;20037;-68
2023/09/10 11:36:59;;;;;;;71.20;47.30;;;32.00;99.90;;;;;;5035369;28;20406;-68
2023/09/10 11:39:26;;;;;;;71.35;48.72;;;32.00;99.90;;;;;;5035001;28;20022;-68
2023/09/10 11:41:54;;;;;;;71.45;48.67;;;32.00;99.90;;;;;;5035161;28;20029;-67
2023/09/10 11:44:21;;;;;;;79.55;52.03;;;31.90;99.90;;;;;;5035032;28;20029;-67
2023/09/10 11:46:51;;;;;;;76.20;50.15;;;31.90;99.90;;;;;;5034846;28;20097;-68
2023/09/10 11:49:21;;;;;;;72.93;46.67;;;31.80;99.90;;;;;;5035067;28;20049;-66
2023/09/10 11:51:49;;;;;;;62.53;46.70;;;31.80;99.90;;;;;;5034785;28;20492;-68
2023/09/10 11:54:17;;;;;;;74.20;50.72;;;31.80;99.90;;;;;;5034667;28;20476;-67
2023/09/10 11:56:49;;;;;;;78.18;47.92;;;31.80;99.90;;;;;;5034845;28;20084;-67
2023/09/10 11:59:17;;;;;;;66.88;47.45;;;31.80;99.90;;;;;;5034757;28;20045;-67
2023/09/10 12:01:44;;;;;;;70.45;47.42;;;31.80;99.90;;;;;;5034571;28;20426;-69
2023/09/10 12:04:11;;;;;;;67.15;47.83;;;31.70;99.90;;;;;;5034680;28;20083;-69
2023/09/10 12:06:38;;;;;;;70.15;49.05;;;31.60;99.90;;;;;;5034584;28;20029;-69
2023/09/10 12:09:05;;;;;;;73.18;49.90;;;31.60;99.90;;;;;;5034428;28;20061;-69
2023/09/10 12:11:33;;;;;;;72.97;49.10;;;31.50;99.90;;;;;;5034558;28;20108;-69
2023/09/10 12:14:00;;;;;;;66.95;46.33;;;31.50;99.90;;;;;;5034427;28;20022;-68
2023/09/10 12:16:27;;;;;;;73.22;46.20;;;31.50;99.90;;;;;;5034203;28;20021;-69
2023/09/10 12:18:54;;;;;;;58.90;45.50;;;31.50;99.90;;;;;;5034465;28;20376;-70
2023/09/10 12:21:22;;;;;;;58.80;44.88;;;31.40;99.90;;;;;;5034571;28;20380;-70
2023/09/10 12:23:49;;;;;;;58.25;42.22;;;31.40;99.90;;;;;;5032905;28;20395;-69
2023/09/10 12:26:16;;;;;;;58.17;43.28;;;31.40;99.90;;;;;;5034264;28;20104;-67
2023/09/10 12:28:42;;;;;;;62.88;43.03;;;31.40;99.90;;;;;;5034188;28;20523;-68
2023/09/10 12:31:11;;;;;;;65.95;43.10;;;31.20;99.90;;;;;;5033871;28;20029;-66